createdAt,value
2023-02-11T00:00:07.635Z,25.20
2023-02-11T00:04:29.390Z,23.00
2023-02-11T00:08:31.335Z,24.70
2023-02-11T00:12:35.425Z,25.10
2023-02-11T00:16:37.219Z,22.20
2023-02-11T00:20:39.447Z,27.50
2023-02-11T00:24:41.911Z,23.10
2023-02-11T00:28:44.586Z,29.60
2023-02-11T00:32:47.596Z,26.10
2023-02-11T00:36:50.134Z,32.90
2023-02-11T00:40:51.992Z,30.10
2023-02-11T00:44:53.711Z,30.40
2023-02-11T00:48:57.435Z,33.10
2023-02-11T00:52:59.262Z,31.60
2023-02-11T00:57:01.190Z,29.30
2023-02-11T01:01:04.580Z,26.30
2023-02-11T01:05:06.961Z,30.30
2023-02-11T01:09:08.874Z,26.30
2023-02-11T01:13:10.860Z,30.50
2023-02-11T01:17:12.785Z,26.60
2023-02-11T01:21:14.674Z,32.00
2023-02-11T01:25:16.616Z,28.30
2023-02-11T01:29:18.542Z,29.20
2023-02-11T01:33:22.234Z,25.30
2023-02-11T01:37:24.257Z,29.40
2023-02-11T01:41:26.031Z,27.70
2023-02-11T01:45:47.010Z,24.00
2023-02-11T01:49:56.495Z,25.50
2023-02-11T01:54:17.893Z,21.30
2023-02-11T01:58:20.424Z,21.00
2023-02-11T02:02:30.376Z,19.90
2023-02-11T02:06:40.441Z,24.90
2023-02-11T02:10:46.503Z,21.30
2023-02-11T02:14:48.281Z,20.10
2023-02-11T02:19:25.311Z,19.20
2023-02-11T02:24:04.532Z,23.10
2023-02-11T02:28:25.308Z,20.70
2023-02-11T02:32:30.850Z,20.90
2023-02-11T02:37:10.551Z,23.60
2023-02-11T02:41:16.479Z,20.60
2023-02-11T02:45:19.160Z,21.40
2023-02-11T02:49:20.966Z,25.90
2023-02-11T02:53:54.555Z,20.80
2023-02-11T02:58:25.152Z,20.90
2023-02-11T03:02:31.436Z,21.40
2023-02-11T03:07:00.525Z,21.30
2023-02-11T03:11:05.287Z,24.60
2023-02-11T03:15:08.331Z,21.00
2023-02-11T03:19:34.400Z,24.20
2023-02-11T03:23:40.918Z,22.90
2023-02-11T03:32:15.883Z,25.50
2023-02-11T03:36:27.416Z,23.20
2023-02-11T03:40:34.770Z,24.30
2023-02-11T03:44:42.494Z,22.30
2023-02-11T03:48:50.052Z,25.10
2023-02-11T03:52:53.601Z,23.40
2023-02-11T03:56:58.209Z,24.00
2023-02-11T04:01:02.586Z,24.10
2023-02-11T04:05:06.822Z,24.30
2023-02-11T04:09:17.031Z,24.30
2023-02-11T04:13:19.883Z,23.40
2023-02-11T04:17:24.716Z,24.60
2023-02-11T04:21:26.633Z,21.60
2023-02-11T04:25:28.701Z,24.60
2023-02-11T04:29:31.555Z,21.80
2023-02-11T04:33:35.563Z,21.00
2023-02-11T04:37:37.453Z,25.40
2023-02-11T04:41:39.262Z,23.70
2023-02-11T04:45:41.238Z,21.60
2023-02-11T04:49:43.552Z,26.60
2023-02-11T04:53:46.431Z,24.10
2023-02-11T04:57:52.145Z,23.10
2023-02-11T05:01:54.041Z,23.40
2023-02-11T05:05:56.310Z,23.90
2023-02-11T05:09:58.441Z,23.50
2023-02-11T05:14:01.194Z,25.60
2023-02-11T05:18:03.156Z,23.70
2023-02-11T05:22:05.135Z,21.70
2023-02-11T05:26:09.564Z,23.80
2023-02-11T05:30:11.964Z,22.50
2023-02-11T05:34:13.792Z,25.20
2023-02-11T05:38:16.952Z,23.80
2023-02-11T05:42:18.760Z,25.10
2023-02-11T05:46:20.664Z,25.20
2023-02-11T05:50:22.662Z,24.50
2023-02-11T05:54:24.449Z,26.40
2023-02-11T05:58:26.266Z,25.50
2023-02-11T06:02:28.041Z,23.80
2023-02-11T06:06:30.082Z,25.90
2023-02-11T06:10:31.936Z,24.30
2023-02-11T06:14:33.851Z,25.80
2023-02-11T06:18:35.678Z,24.40
2023-02-11T06:22:37.973Z,22.70
2023-02-11T06:26:40.138Z,25.30
2023-02-11T06:30:42.356Z,28.10
2023-02-11T06:34:45.943Z,25.20
2023-02-11T06:38:49.033Z,25.60
2023-02-11T06:42:51.174Z,23.90
2023-02-11T06:46:53.227Z,24.60
2023-02-11T06:50:55.246Z,29.40
2023-02-11T06:54:57.450Z,25.10
2023-02-11T06:59:01.993Z,23.80
2023-02-11T07:03:06.904Z,30.30
2023-02-11T07:07:09.119Z,24.00
2023-02-11T07:11:20.879Z,27.70
2023-02-11T07:15:22.700Z,26.80
2023-02-11T07:19:24.569Z,21.80
2023-02-11T07:23:26.405Z,25.70
2023-02-11T07:27:28.277Z,24.40
2023-02-11T07:31:31.183Z,27.00
2023-02-11T07:35:33.299Z,27.20
2023-02-11T07:39:35.692Z,26.50
2023-02-11T07:43:39.358Z,27.00
2023-02-11T07:47:42.666Z,27.50
2023-02-11T07:51:45.481Z,24.90
2023-02-11T07:55:47.392Z,26.70
2023-02-11T07:59:58.256Z,26.80
2023-02-11T08:04:02.287Z,23.10
2023-02-11T08:08:04.398Z,26.30
2023-02-11T08:12:07.636Z,23.10
2023-02-11T08:16:23.898Z,28.80
2023-02-11T08:20:26.078Z,24.80
2023-02-11T08:24:28.919Z,28.20
2023-02-11T08:28:31.982Z,27.40
2023-02-11T08:56:59.792Z,31.40
2023-02-11T09:01:12.907Z,27.10
2023-02-11T09:05:15.540Z,25.20
2023-02-11T09:09:17.818Z,22.70
2023-02-11T09:13:43.734Z,23.50
2023-02-11T09:17:47.944Z,25.80
2023-02-11T09:21:51.014Z,22.90
2023-02-11T09:25:53.049Z,23.40
2023-02-11T09:29:55.882Z,19.90
2023-02-11T09:34:01.451Z,24.50
2023-02-11T09:38:03.390Z,23.30
2023-02-11T09:42:19.902Z,22.80
2023-02-11T09:46:39.621Z,21.90
2023-02-11T09:50:46.729Z,27.60
2023-02-11T09:55:09.278Z,25.60
2023-02-11T09:59:16.975Z,24.40
2023-02-11T10:03:39.101Z,29.20
2023-02-11T10:08:22.860Z,24.20
2023-02-11T10:13:01.480Z,23.00
2023-02-11T10:17:16.553Z,18.80
2023-02-11T10:27:01.486Z,25.60
2023-02-11T10:31:42.893Z,26.80
2023-02-11T10:35:46.740Z,23.20
2023-02-11T10:39:50.525Z,26.10
2023-02-11T10:43:52.522Z,24.00
2023-02-11T10:47:54.608Z,25.50
2023-02-11T10:52:18.210Z,25.10
2023-02-11T10:56:27.177Z,24.10
2023-02-11T11:00:56.458Z,24.70
2023-02-11T11:05:03.425Z,27.10
2023-02-11T11:09:05.070Z,22.90
2023-02-11T11:13:58.552Z,21.60
2023-02-11T11:18:22.855Z,24.80
2023-02-11T11:22:24.966Z,23.00
2023-02-11T11:27:02.382Z,24.30
2023-02-11T11:31:05.374Z,24.50
2023-02-11T11:35:28.955Z,20.00
2023-02-11T11:39:34.228Z,22.10
2023-02-11T11:43:38.415Z,24.70
2023-02-11T11:48:47.808Z,22.80
2023-02-11T11:53:16.156Z,23.60
2023-02-11T11:57:22.863Z,23.40
2023-02-11T12:01:54.830Z,20.10
2023-02-11T12:06:29.647Z,21.80
2023-02-11T12:11:18.949Z,20.60
2023-02-11T12:15:41.182Z,22.40
2023-02-11T12:19:50.379Z,23.50
2023-02-11T12:23:55.733Z,19.40
2023-02-11T12:28:07.135Z,21.20
2023-02-11T12:32:31.513Z,22.40
2023-02-11T12:36:53.883Z,20.70
2023-02-11T12:41:04.383Z,25.20
2023-02-11T12:45:26.066Z,21.30
2023-02-11T12:49:49.938Z,24.60
2023-02-11T12:54:10.717Z,23.70
2023-02-11T12:58:45.815Z,22.20
2023-02-11T13:03:14.270Z,20.80
2023-02-11T13:07:30.647Z,21.00
2023-02-11T13:11:39.994Z,22.70
2023-02-11T13:16:05.272Z,24.70
2023-02-11T13:20:30.258Z,24.00
2023-02-11T13:25:03.229Z,23.50
2023-02-11T13:29:16.491Z,23.30
2023-02-11T13:33:50.608Z,21.10
2023-02-11T13:37:55.822Z,22.70
2023-02-11T13:42:04.367Z,22.10
2023-02-11T13:46:09.931Z,23.50
2023-02-11T13:50:46.791Z,21.40
2023-02-11T13:54:52.799Z,21.80
2023-02-11T13:58:54.830Z,18.70
2023-02-11T14:03:31.380Z,22.30
2023-02-11T14:12:36.473Z,22.90
2023-02-11T14:17:18.548Z,20.00
2023-02-11T14:26:25.621Z,21.90
2023-02-11T14:30:38.758Z,22.20
2023-02-11T14:35:06.043Z,19.70
2023-02-11T14:39:41.252Z,19.50
2023-02-11T14:43:56.219Z,19.70
2023-02-11T14:48:07.730Z,18.90
2023-02-11T14:52:36.289Z,19.70
2023-02-11T14:56:44.466Z,20.00
2023-02-11T15:00:59.987Z,18.30
2023-02-11T15:05:15.949Z,17.50
2023-02-11T15:09:44.183Z,16.00
2023-02-11T15:13:51.728Z,17.70
2023-02-11T15:17:59.024Z,14.50
2023-02-11T15:22:04.833Z,16.90
2023-02-11T15:26:14.042Z,19.00
2023-02-11T15:30:22.261Z,17.00
2023-02-11T15:34:24.233Z,17.60
2023-02-11T15:38:29.295Z,18.40
2023-02-11T15:42:40.970Z,20.40
2023-02-11T15:46:46.906Z,14.50
2023-02-11T15:50:58.532Z,17.00
2023-02-11T15:59:56.077Z,15.90
2023-02-11T16:04:01.368Z,15.40
2023-02-11T16:08:29.468Z,15.80
2023-02-11T16:12:31.621Z,17.60
2023-02-11T16:16:34.740Z,15.80
2023-02-11T16:20:37.961Z,19.00
2023-02-11T16:25:20.220Z,16.30
2023-02-11T16:29:32.413Z,17.80
2023-02-11T16:33:42.431Z,15.80
2023-02-11T16:37:45.199Z,16.30
2023-02-11T16:41:53.761Z,16.70
2023-02-11T17:03:39.559Z,15.00
2023-02-11T17:07:56.381Z,13.30
2023-02-11T17:12:35.045Z,13.70
2023-02-11T17:16:39.930Z,15.60
2023-02-11T17:20:42.180Z,15.60
2023-02-11T17:24:44.305Z,15.10
2023-02-11T17:28:47.710Z,15.40
2023-02-11T17:32:50.673Z,13.00
2023-02-11T17:36:52.640Z,15.40
2023-02-11T17:40:59.326Z,12.50
2023-02-11T17:45:01.217Z,10.70
2023-02-11T17:49:03.496Z,13.20
2023-02-11T17:53:06.597Z,13.00
2023-02-11T17:57:10.383Z,10.20
2023-02-11T18:01:12.881Z,12.50
2023-02-11T18:05:14.856Z,11.50
2023-02-11T18:09:16.885Z,14.90
2023-02-11T18:13:19.231Z,16.90
2023-02-11T18:17:22.012Z,18.70
2023-02-11T18:21:24.428Z,13.30
2023-02-11T18:25:26.290Z,15.90
2023-02-11T18:29:29.195Z,15.90
2023-02-11T18:33:31.548Z,17.30
2023-02-11T18:37:33.307Z,15.40
2023-02-11T18:41:35.494Z,16.10
2023-02-11T18:45:37.503Z,17.10
2023-02-11T18:49:39.448Z,14.70
2023-02-11T18:53:42.148Z,16.50
2023-02-11T18:57:44.734Z,17.00
2023-02-11T19:01:47.478Z,18.70
2023-02-11T19:05:51.704Z,18.40
2023-02-11T19:09:55.428Z,18.80
2023-02-11T19:13:58.030Z,16.80
2023-02-11T19:17:59.784Z,20.00
2023-02-11T19:22:07.272Z,17.10
2023-02-11T19:26:10.300Z,18.10
2023-02-11T19:30:12.406Z,18.50
2023-02-11T19:34:15.775Z,19.70
2023-02-11T19:38:25.205Z,18.10
2023-02-11T19:42:40.141Z,17.00
2023-02-11T19:47:10.992Z,19.70
2023-02-11T19:51:25.130Z,20.80
2023-02-11T19:55:32.664Z,20.30
2023-02-11T19:59:54.074Z,17.40
2023-02-11T20:04:04.436Z,15.90
2023-02-11T20:08:21.086Z,16.30
2023-02-11T20:12:24.269Z,19.60
2023-02-11T20:16:46.801Z,16.60
2023-02-11T20:20:55.087Z,19.70
2023-02-11T20:24:59.678Z,16.20
2023-02-11T20:29:08.791Z,18.20
2023-02-11T20:33:18.750Z,13.60
2023-02-11T20:37:21.946Z,14.60
2023-02-11T20:41:27.991Z,14.40
2023-02-11T20:45:33.707Z,17.20
2023-02-11T20:49:46.550Z,14.10
2023-02-11T20:53:51.715Z,16.20
2023-02-11T21:02:08.314Z,18.40
2023-02-11T21:06:20.636Z,18.70
2023-02-11T21:10:32.401Z,15.20
2023-02-11T21:14:37.332Z,14.20
2023-02-11T21:18:51.125Z,16.10
2023-02-11T21:22:57.598Z,17.20
2023-02-11T21:26:59.474Z,16.90
2023-02-11T21:31:03.263Z,16.60
2023-02-11T21:35:06.039Z,15.20
2023-02-11T21:39:08.477Z,16.10
2023-02-11T21:43:10.355Z,17.40
2023-02-11T21:47:12.908Z,17.10
2023-02-11T21:51:17.733Z,14.10
2023-02-11T21:55:20.225Z,15.80
2023-02-11T21:59:22.033Z,13.40
2023-02-11T22:03:23.994Z,15.00
2023-02-11T22:07:27.510Z,12.10
2023-02-11T22:11:29.748Z,13.60
2023-02-11T22:15:31.621Z,10.60
2023-02-11T22:19:34.413Z,12.50
2023-02-11T22:23:37.791Z,22.10
2023-02-11T22:27:39.736Z,20.40
2023-02-11T22:31:42.010Z,11.30
2023-02-11T22:35:43.976Z,15.40
2023-02-11T22:39:46.219Z,12.90
2023-02-11T22:43:48.255Z,12.80
2023-02-11T22:47:50.335Z,12.70
2023-02-11T22:51:52.766Z,17.90
2023-02-11T22:55:54.824Z,11.80
2023-02-11T22:59:56.926Z,14.60
2023-02-11T23:04:00.397Z,15.10
2023-02-11T23:08:02.316Z,15.30
2023-02-11T23:12:04.942Z,12.80
2023-02-11T23:16:10.486Z,14.90
2023-02-11T23:20:13.002Z,12.50
2023-02-11T23:24:15.498Z,16.50
2023-02-11T23:28:17.519Z,13.80
2023-02-11T23:32:20.433Z,16.20
2023-02-11T23:36:23.260Z,13.10
2023-02-11T23:40:25.180Z,12.50
2023-02-11T23:44:27.920Z,13.10
2023-02-11T23:48:30.754Z,14.40
2023-02-11T23:52:32.841Z,11.20
2023-02-11T23:56:36.470Z,14.10
